createdAt,value
2017-10-28T00:08:03.000Z,1019.617
2017-10-28T00:18:03.000Z,1019.668
2017-10-28T00:28:03.000Z,1019.387
2017-10-28T00:38:03.000Z,1019.135
2017-10-28T00:48:03.000Z,1019.245
2017-10-28T00:58:06.000Z,1019.007
2017-10-28T01:08:03.000Z,1018.77
2017-10-28T01:18:06.000Z,1018.609
2017-10-28T01:28:03.000Z,1018.516
2017-10-28T01:38:03.000Z,1018.133
2017-10-28T01:48:03.000Z,1018.09
2017-10-28T01:58:04.000Z,1017.837
2017-10-28T02:08:03.000Z,1017.571
2017-10-28T02:18:03.000Z,1017.465
2017-10-28T02:28:03.000Z,1017.364
2017-10-28T02:38:03.000Z,1017.024
2017-10-28T02:48:03.000Z,1016.714
2017-10-28T02:58:03.000Z,1016.834
2017-10-28T03:08:03.000Z,1016.538
2017-10-28T03:18:03.000Z,1016.451
2017-10-28T03:28:03.000Z,1016.16
2017-10-28T03:38:03.000Z,1016.012
2017-10-28T03:48:03.000Z,1015.979
2017-10-28T03:58:03.000Z,1015.779
2017-10-28T04:08:03.000Z,1015.706
2017-10-28T04:18:03.000Z,1015.285
2017-10-28T04:28:03.000Z,1015.438
2017-10-28T04:38:03.000Z,1015.257
2017-10-28T04:48:03.000Z,1014.978
2017-10-28T04:58:03.000Z,1014.873
2017-10-28T05:08:03.000Z,1014.759
2017-10-28T05:18:03.000Z,1014.411
2017-10-28T05:28:03.000Z,1014.338
2017-10-28T05:38:03.000Z,1014.007
2017-10-28T05:48:03.000Z,1013.806
2017-10-28T05:58:03.000Z,1013.29
2017-10-28T06:08:03.000Z,1013.426
2017-10-28T06:18:03.000Z,1013.379
2017-10-28T06:28:07.000Z,1013.687
2017-10-28T06:38:03.000Z,1013.621
2017-10-28T06:48:03.000Z,1013.38
2017-10-28T06:58:03.000Z,1013.32
2017-10-28T07:08:03.000Z,1013.143
2017-10-28T07:18:03.000Z,1012.854
2017-10-28T07:28:03.000Z,1012.924
2017-10-28T07:38:03.000Z,1013.142
2017-10-28T07:48:04.000Z,1013.227
2017-10-28T07:58:04.000Z,1013.156
2017-10-28T08:08:04.000Z,1012.77
2017-10-28T08:18:04.000Z,1013.041
2017-10-28T08:28:04.000Z,1012.972
2017-10-28T08:38:04.000Z,1012.788
2017-10-28T08:48:04.000Z,1012.545
2017-10-28T08:58:04.000Z,1012.419
2017-10-28T09:08:04.000Z,1012.114
2017-10-28T09:18:04.000Z,1012.022
2017-10-28T09:28:04.000Z,1012.029
2017-10-28T09:38:04.000Z,1011.924
2017-10-28T09:48:04.000Z,1011.899
2017-10-28T09:58:04.000Z,1011.906
2017-10-28T10:08:04.000Z,1011.903
2017-10-28T10:18:04.000Z,1011.697
2017-10-28T10:38:04.000Z,1011.33
2017-10-28T10:48:04.000Z,1011.339
2017-10-28T10:58:04.000Z,1011.208
2017-10-28T11:08:04.000Z,1010.856
2017-10-28T11:18:04.000Z,1010.671
2017-10-28T11:28:04.000Z,1010.434
2017-10-28T11:38:04.000Z,1010.636
2017-10-28T11:48:08.000Z,1010.488
2017-10-28T11:58:06.000Z,1010.171
2017-10-28T12:08:04.000Z,1009.891
2017-10-28T12:18:04.000Z,1009.349
2017-10-28T12:28:04.000Z,1009.267
2017-10-28T12:38:04.000Z,1009.016
2017-10-28T12:48:04.000Z,1008.753
2017-10-28T12:58:04.000Z,1008.869
2017-10-28T13:08:04.000Z,1008.888
2017-10-28T13:18:04.000Z,1008.851
2017-10-28T13:28:05.000Z,1008.832
2017-10-28T13:38:04.000Z,1008.716
2017-10-28T13:48:04.000Z,1008.546
2017-10-28T13:58:04.000Z,1008.313
2017-10-28T14:08:04.000Z,1008.319
2017-10-28T14:18:04.000Z,1008.342
2017-10-28T14:28:04.000Z,1008.256
2017-10-28T14:38:04.000Z,1007.969
2017-10-28T14:48:04.000Z,1007.877
2017-10-28T14:58:04.000Z,1007.616
2017-10-28T15:08:04.000Z,1007.464
2017-10-28T15:18:04.000Z,1007.383
2017-10-28T15:28:04.000Z,1007.343
2017-10-28T15:38:04.000Z,1006.991
2017-10-28T15:48:04.000Z,1006.772
2017-10-28T15:58:04.000Z,1006.625
2017-10-28T16:08:04.000Z,1006.502
2017-10-28T16:18:05.000Z,1006.286
2017-10-28T16:28:05.000Z,1006.058
2017-10-28T16:38:05.000Z,1005.891
2017-10-28T16:48:05.000Z,1005.773
2017-10-28T16:58:05.000Z,1005.706
2017-10-28T17:08:05.000Z,1005.575
2017-10-28T17:18:05.000Z,1005.295
2017-10-28T17:28:05.000Z,1004.936
2017-10-28T17:38:05.000Z,1004.754
2017-10-28T17:48:05.000Z,1004.683
2017-10-28T17:58:05.000Z,1004.788
2017-10-28T18:08:05.000Z,1004.554
2017-10-28T18:18:05.000Z,1004.404
2017-10-28T18:28:06.000Z,1004.309
2017-10-28T18:38:05.000Z,1003.97
2017-10-28T18:48:05.000Z,1003.576
2017-10-28T18:58:05.000Z,1003.419
2017-10-28T19:08:05.000Z,1003.222
2017-10-28T19:18:05.000Z,1002.836
2017-10-28T19:28:05.000Z,1002.759
2017-10-28T19:38:05.000Z,1002.415
2017-10-28T19:48:05.000Z,1002.345
2017-10-28T19:58:05.000Z,1002.018
2017-10-28T20:08:05.000Z,1001.735
2017-10-28T20:18:05.000Z,1001.702
2017-10-28T20:28:05.000Z,1001.529
2017-10-28T20:38:05.000Z,1001.231
2017-10-28T20:48:05.000Z,1001.112
2017-10-28T20:58:05.000Z,1000.937
2017-10-28T21:08:05.000Z,1000.758
2017-10-28T21:18:05.000Z,1000.379
2017-10-28T21:28:05.000Z,1000.152
2017-10-28T21:38:05.000Z,1000.007
2017-10-28T21:48:05.000Z,999.868
2017-10-28T21:58:05.000Z,999.577
2017-10-28T22:08:05.000Z,999.334
2017-10-28T22:18:05.000Z,998.957
2017-10-28T22:28:05.000Z,998.833
2017-10-28T22:48:07.000Z,998.626
2017-10-28T22:58:05.000Z,998.405
2017-10-28T23:08:05.000Z,998.3
2017-10-28T23:18:05.000Z,997.998
2017-10-28T23:28:09.000Z,997.749
2017-10-28T23:38:05.000Z,997.51
2017-10-28T23:48:09.000Z,997.534
2017-10-28T23:58:05.000Z,997.379
